sensor_id;sensor_type;location;lat;lon;timestamp;temperature;humidity
11540;DHT22;5826;54.756;9.192;2023-01-10T00:00:23;7.00;99.90
11540;DHT22;5826;54.756;9.192;2023-01-10T00:02:50;7.00;99.90
11540;DHT22;5826;54.756;9.192;2023-01-10T00:05:16;7.00;99.90
11540;DHT22;5826;54.756;9.192;2023-01-10T00:07:42;7.00;99.90
11540;DHT22;5826;54.756;9.192;2023-01-10T00:10:08;7.10;99.90
11540;DHT22;5826;54.756;9.192;2023-01-10T00:12:34;7.10;99.90
11540;DHT22;5826;54.756;9.192;2023-01-10T00:15:18;7.00;99.90
11540;DHT22;5826;54.756;9.192;2023-01-10T00:17:44;7.00;99.90
11540;DHT22;5826;54.756;9.192;2023-01-10T00:20:10;7.00;99.90
11540;DHT22;5826;54.756;9.192;2023-01-10T00:22:36;7.00;99.90
11540;DHT22;5826;54.756;9.192;2023-01-10T00:25:01;7.00;99.90
11540;DHT22;5826;54.756;9.192;2023-01-10T00:27:27;7.00;99.90
11540;DHT22;5826;54.756;9.192;2023-01-10T00:29:52;7.00;99.90
11540;DHT22;5826;54.756;9.192;2023-01-10T00:32:19;7.10;99.90
11540;DHT22;5826;54.756;9.192;2023-01-10T00:34:45;7.00;99.90
11540;DHT22;5826;54.756;9.192;2023-01-10T00:37:10;7.10;99.90
11540;DHT22;5826;54.756;9.192;2023-01-10T00:39:36;7.10;99.90
11540;DHT22;5826;54.756;9.192;2023-01-10T00:42:01;7.10;99.90
11540;DHT22;5826;54.756;9.192;2023-01-10T00:44:46;7.10;99.90
11540;DHT22;5826;54.756;9.192;2023-01-10T00:47:12;7.00;99.90
11540;DHT22;5826;54.756;9.192;2023-01-10T00:49:38;7.00;99.90
11540;DHT22;5826;54.756;9.192;2023-01-10T00:52:05;7.00;99.90
11540;DHT22;5826;54.756;9.192;2023-01-10T00:54:30;7.00;99.90
11540;DHT22;5826;54.756;9.192;2023-01-10T00:56:56;7.00;99.90
11540;DHT22;5826;54.756;9.192;2023-01-10T00:59:22;7.00;99.90
11540;DHT22;5826;54.756;9.192;2023-01-10T01:01:49;7.00;99.90
11540;DHT22;5826;54.756;9.192;2023-01-10T01:04:14;7.00;99.90
11540;DHT22;5826;54.756;9.192;2023-01-10T01:06:42;7.00;99.90
11540;DHT22;5826;54.756;9.192;2023-01-10T01:09:08;7.10;99.90
11540;DHT22;5826;54.756;9.192;2023-01-10T01:11:33;7.00;99.90
11540;DHT22;5826;54.756;9.192;2023-01-10T01:13:59;7.10;99.90
11540;DHT22;5826;54.756;9.192;2023-01-10T01:16:24;7.00;99.90
11540;DHT22;5826;54.756;9.192;2023-01-10T01:18:50;7.10;99.90
11540;DHT22;5826;54.756;9.192;2023-01-10T01:21:15;7.10;99.90
11540;DHT22;5826;54.756;9.192;2023-01-10T01:23:41;7.10;99.90
11540;DHT22;5826;54.756;9.192;2023-01-10T01:26:06;7.10;99.90
11540;DHT22;5826;54.756;9.192;2023-01-10T01:28:32;7.10;99.90
11540;DHT22;5826;54.756;9.192;2023-01-10T01:30:58;7.10;99.90
11540;DHT22;5826;54.756;9.192;2023-01-10T01:33:23;7.20;99.90
11540;DHT22;5826;54.756;9.192;2023-01-10T01:35:49;7.20;99.90
11540;DHT22;5826;54.756;9.192;2023-01-10T01:38:15;7.20;99.90
11540;DHT22;5826;54.756;9.192;2023-01-10T01:40:41;7.20;99.90
11540;DHT22;5826;54.756;9.192;2023-01-10T01:45:47;7.20;99.90
11540;DHT22;5826;54.756;9.192;2023-01-10T01:51:01;7.30;99.90
11540;DHT22;5826;54.756;9.192;2023-01-10T01:53:43;7.20;99.90
11540;DHT22;5826;54.756;9.192;2023-01-10T01:56:14;7.20;99.90
11540;DHT22;5826;54.756;9.192;2023-01-10T01:58:57;7.20;99.90
11540;DHT22;5826;54.756;9.192;2023-01-10T02:01:25;7.20;99.90
11540;DHT22;5826;54.756;9.192;2023-01-10T02:04:02;7.20;99.90
11540;DHT22;5826;54.756;9.192;2023-01-10T02:06:30;7.20;99.90
11540;DHT22;5826;54.756;9.192;2023-01-10T02:09:21;7.30;99.90
11540;DHT22;5826;54.756;9.192;2023-01-10T02:11:48;7.30;99.90
11540;DHT22;5826;54.756;9.192;2023-01-10T02:14:14;7.20;99.90
11540;DHT22;5826;54.756;9.192;2023-01-10T02:16:40;7.20;99.90
11540;DHT22;5826;54.756;9.192;2023-01-10T02:19:16;7.20;99.90
11540;DHT22;5826;54.756;9.192;2023-01-10T02:27:30;7.20;99.90
11540;DHT22;5826;54.756;9.192;2023-01-10T02:32:44;7.10;99.90
11540;DHT22;5826;54.756;9.192;2023-01-10T02:38:21;7.00;99.90
11540;DHT22;5826;54.756;9.192;2023-01-10T02:40:58;7.00;99.90
11540;DHT22;5826;54.756;9.192;2023-01-10T02:43:33;7.00;99.90
11540;DHT22;5826;54.756;9.192;2023-01-10T02:46:09;7.00;99.90
11540;DHT22;5826;54.756;9.192;2023-01-10T02:48:35;7.00;99.90
11540;DHT22;5826;54.756;9.192;2023-01-10T02:51:03;6.90;99.90
11540;DHT22;5826;54.756;9.192;2023-01-10T02:53:36;6.90;99.90
11540;DHT22;5826;54.756;9.192;2023-01-10T02:59:59;6.90;99.90
11540;DHT22;5826;54.756;9.192;2023-01-10T03:05:11;6.80;99.90
11540;DHT22;5826;54.756;9.192;2023-01-10T03:10:29;6.70;99.90
11540;DHT22;5826;54.756;9.192;2023-01-10T03:13:04;6.70;99.90
11540;DHT22;5826;54.756;9.192;2023-01-10T03:15:34;6.70;99.90
11540;DHT22;5826;54.756;9.192;2023-01-10T03:18:04;6.70;99.90
11540;DHT22;5826;54.756;9.192;2023-01-10T03:20:33;6.60;99.90
11540;DHT22;5826;54.756;9.192;2023-01-10T03:23:03;6.60;99.90
11540;DHT22;5826;54.756;9.192;2023-01-10T03:25:32;6.60;99.90
11540;DHT22;5826;54.756;9.192;2023-01-10T03:30:56;6.50;99.90
11540;DHT22;5826;54.756;9.192;2023-01-10T03:33:26;6.50;99.90
11540;DHT22;5826;54.756;9.192;2023-01-10T03:36:04;6.50;99.90
11540;DHT22;5826;54.756;9.192;2023-01-10T03:38:49;6.40;99.90
11540;DHT22;5826;54.756;9.192;2023-01-10T03:41:24;6.40;99.90
11540;DHT22;5826;54.756;9.192;2023-01-10T03:47:07;6.30;99.90
11540;DHT22;5826;54.756;9.192;2023-01-10T03:49:36;6.20;99.90
11540;DHT22;5826;54.756;9.192;2023-01-10T03:52:03;6.10;99.90
11540;DHT22;5826;54.756;9.192;2023-01-10T03:54:30;6.10;99.90
11540;DHT22;5826;54.756;9.192;2023-01-10T03:56:55;6.00;99.90
11540;DHT22;5826;54.756;9.192;2023-01-10T03:59:24;6.00;99.90
11540;DHT22;5826;54.756;9.192;2023-01-10T04:01:50;6.00;99.90
11540;DHT22;5826;54.756;9.192;2023-01-10T04:04:16;6.00;99.90
11540;DHT22;5826;54.756;9.192;2023-01-10T04:06:41;6.00;99.90
11540;DHT22;5826;54.756;9.192;2023-01-10T04:09:07;6.00;99.90
11540;DHT22;5826;54.756;9.192;2023-01-10T04:11:33;6.10;99.90
11540;DHT22;5826;54.756;9.192;2023-01-10T04:13:58;6.10;99.90
11540;DHT22;5826;54.756;9.192;2023-01-10T04:16:24;6.10;99.90
11540;DHT22;5826;54.756;9.192;2023-01-10T04:18:49;6.20;99.90
11540;DHT22;5826;54.756;9.192;2023-01-10T04:21:15;6.20;99.90
11540;DHT22;5826;54.756;9.192;2023-01-10T04:23:41;6.20;99.90
11540;DHT22;5826;54.756;9.192;2023-01-10T04:26:06;6.30;99.90
11540;DHT22;5826;54.756;9.192;2023-01-10T04:28:32;6.30;99.90
11540;DHT22;5826;54.756;9.192;2023-01-10T04:30:57;6.30;99.90
11540;DHT22;5826;54.756;9.192;2023-01-10T04:33:23;6.40;99.90
11540;DHT22;5826;54.756;9.192;2023-01-10T04:35:49;6.40;99.90
11540;DHT22;5826;54.756;9.192;2023-01-10T04:38:16;6.40;99.90
11540;DHT22;5826;54.756;9.192;2023-01-10T04:40:42;6.50;99.90
11540;DHT22;5826;54.756;9.192;2023-01-10T04:43:08;6.50;99.90
11540;DHT22;5826;54.756;9.192;2023-01-10T04:45:34;6.50;99.90
11540;DHT22;5826;54.756;9.192;2023-01-10T04:47:59;6.50;99.90
11540;DHT22;5826;54.756;9.192;2023-01-10T04:50:25;6.60;99.90
11540;DHT22;5826;54.756;9.192;2023-01-10T04:52:51;6.60;99.90
11540;DHT22;5826;54.756;9.192;2023-01-10T04:55:17;6.70;99.90
11540;DHT22;5826;54.756;9.192;2023-01-10T04:57:43;6.70;99.90
11540;DHT22;5826;54.756;9.192;2023-01-10T05:00:09;6.70;99.90
11540;DHT22;5826;54.756;9.192;2023-01-10T05:02:35;6.80;99.90
11540;DHT22;5826;54.756;9.192;2023-01-10T05:05:07;6.80;99.90
11540;DHT22;5826;54.756;9.192;2023-01-10T05:07:32;6.80;99.90
11540;DHT22;5826;54.756;9.192;2023-01-10T05:09:58;6.90;99.90
11540;DHT22;5826;54.756;9.192;2023-01-10T05:12:23;6.90;99.90
11540;DHT22;5826;54.756;9.192;2023-01-10T05:14:49;6.90;99.90
11540;DHT22;5826;54.756;9.192;2023-01-10T05:17:14;6.90;99.90
11540;DHT22;5826;54.756;9.192;2023-01-10T05:19:40;7.00;99.90
11540;DHT22;5826;54.756;9.192;2023-01-10T05:22:05;7.00;99.90
11540;DHT22;5826;54.756;9.192;2023-01-10T05:24:31;7.00;99.90
11540;DHT22;5826;54.756;9.192;2023-01-10T05:26:56;7.00;99.90
11540;DHT22;5826;54.756;9.192;2023-01-10T05:29:23;7.10;99.90
11540;DHT22;5826;54.756;9.192;2023-01-10T05:31:50;7.10;99.90
11540;DHT22;5826;54.756;9.192;2023-01-10T05:34:15;7.10;99.90
11540;DHT22;5826;54.756;9.192;2023-01-10T05:36:41;7.10;99.90
11540;DHT22;5826;54.756;9.192;2023-01-10T05:39:07;7.10;99.90
11540;DHT22;5826;54.756;9.192;2023-01-10T05:41:32;7.20;99.90
11540;DHT22;5826;54.756;9.192;2023-01-10T05:43:58;7.20;99.90
11540;DHT22;5826;54.756;9.192;2023-01-10T05:46:23;7.20;99.90
11540;DHT22;5826;54.756;9.192;2023-01-10T05:48:51;7.20;99.90
11540;DHT22;5826;54.756;9.192;2023-01-10T05:51:16;7.20;99.90
11540;DHT22;5826;54.756;9.192;2023-01-10T05:53:42;7.20;99.90
11540;DHT22;5826;54.756;9.192;2023-01-10T05:56:08;7.20;99.90
11540;DHT22;5826;54.756;9.192;2023-01-10T05:58:34;7.20;99.90
11540;DHT22;5826;54.756;9.192;2023-01-10T06:00:59;7.20;99.90
11540;DHT22;5826;54.756;9.192;2023-01-10T06:03:25;7.20;99.90
11540;DHT22;5826;54.756;9.192;2023-01-10T06:05:51;7.20;99.90
11540;DHT22;5826;54.756;9.192;2023-01-10T06:08:17;7.20;99.90
11540;DHT22;5826;54.756;9.192;2023-01-10T06:10:42;7.20;99.90
11540;DHT22;5826;54.756;9.192;2023-01-10T06:13:08;7.20;99.90
11540;DHT22;5826;54.756;9.192;2023-01-10T06:15:35;7.20;99.90
11540;DHT22;5826;54.756;9.192;2023-01-10T06:18:01;7.20;99.90
11540;DHT22;5826;54.756;9.192;2023-01-10T06:20:26;7.10;99.90
11540;DHT22;5826;54.756;9.192;2023-01-10T06:22:51;7.10;99.90
11540;DHT22;5826;54.756;9.192;2023-01-10T06:25:17;7.00;99.90
11540;DHT22;5826;54.756;9.192;2023-01-10T06:27:43;7.00;99.90
11540;DHT22;5826;54.756;9.192;2023-01-10T06:30:10;6.90;99.90
11540;DHT22;5826;54.756;9.192;2023-01-10T06:32:37;6.90;99.90
11540;DHT22;5826;54.756;9.192;2023-01-10T06:35:03;6.80;99.90
11540;DHT22;5826;54.756;9.192;2023-01-10T06:37:29;6.80;99.90
11540;DHT22;5826;54.756;9.192;2023-01-10T06:39:55;6.70;99.90
11540;DHT22;5826;54.756;9.192;2023-01-10T06:42:20;6.70;99.90
11540;DHT22;5826;54.756;9.192;2023-01-10T06:44:46;6.70;99.90
11540;DHT22;5826;54.756;9.192;2023-01-10T06:47:11;6.70;99.90
11540;DHT22;5826;54.756;9.192;2023-01-10T06:49:37;6.80;99.90
11540;DHT22;5826;54.756;9.192;2023-01-10T06:52:02;6.80;99.90
11540;DHT22;5826;54.756;9.192;2023-01-10T06:54:28;6.80;99.90
11540;DHT22;5826;54.756;9.192;2023-01-10T06:56:53;6.80;99.90
11540;DHT22;5826;54.756;9.192;2023-01-10T06:59:19;6.80;99.90
11540;DHT22;5826;54.756;9.192;2023-01-10T07:01:45;6.80;99.90
11540;DHT22;5826;54.756;9.192;2023-01-10T07:04:10;6.90;99.90
11540;DHT22;5826;54.756;9.192;2023-01-10T07:06:37;6.90;99.90
11540;DHT22;5826;54.756;9.192;2023-01-10T07:09:04;6.90;99.90
11540;DHT22;5826;54.756;9.192;2023-01-10T07:11:30;6.90;99.90
11540;DHT22;5826;54.756;9.192;2023-01-10T07:13:56;6.90;99.90
11540;DHT22;5826;54.756;9.192;2023-01-10T07:16:21;6.90;99.90
11540;DHT22;5826;54.756;9.192;2023-01-10T07:18:47;6.90;99.90
11540;DHT22;5826;54.756;9.192;2023-01-10T07:21:13;6.90;99.90
11540;DHT22;5826;54.756;9.192;2023-01-10T07:23:39;7.00;99.90
11540;DHT22;5826;54.756;9.192;2023-01-10T07:26:07;6.90;99.90
11540;DHT22;5826;54.756;9.192;2023-01-10T07:28:32;6.90;99.90
11540;DHT22;5826;54.756;9.192;2023-01-10T07:31:03;6.90;99.90
11540;DHT22;5826;54.756;9.192;2023-01-10T07:33:29;6.90;99.90
11540;DHT22;5826;54.756;9.192;2023-01-10T07:35:55;6.90;99.90
11540;DHT22;5826;54.756;9.192;2023-01-10T07:38:21;6.90;99.90
11540;DHT22;5826;54.756;9.192;2023-01-10T07:40:47;6.90;99.90
11540;DHT22;5826;54.756;9.192;2023-01-10T07:43:12;6.90;99.90
11540;DHT22;5826;54.756;9.192;2023-01-10T07:45:38;6.90;99.90
11540;DHT22;5826;54.756;9.192;2023-01-10T07:48:04;6.80;99.90
11540;DHT22;5826;54.756;9.192;2023-01-10T07:50:34;6.90;99.90
11540;DHT22;5826;54.756;9.192;2023-01-10T07:53:01;6.90;99.90
11540;DHT22;5826;54.756;9.192;2023-01-10T07:55:27;6.90;99.90
11540;DHT22;5826;54.756;9.192;2023-01-10T07:57:53;6.90;99.90
11540;DHT22;5826;54.756;9.192;2023-01-10T08:00:19;6.90;99.90
11540;DHT22;5826;54.756;9.192;2023-01-10T08:02:45;6.90;99.90
11540;DHT22;5826;54.756;9.192;2023-01-10T08:05:10;6.80;99.90
11540;DHT22;5826;54.756;9.192;2023-01-10T08:07:36;6.80;99.90
11540;DHT22;5826;54.756;9.192;2023-01-10T08:10:03;6.90;99.90
11540;DHT22;5826;54.756;9.192;2023-01-10T08:12:29;6.90;99.90
11540;DHT22;5826;54.756;9.192;2023-01-10T08:14:54;7.00;99.90
11540;DHT22;5826;54.756;9.192;2023-01-10T08:17:20;7.00;99.90
11540;DHT22;5826;54.756;9.192;2023-01-10T08:19:45;7.00;99.90
11540;DHT22;5826;54.756;9.192;2023-01-10T08:22:11;7.00;99.90
11540;DHT22;5826;54.756;9.192;2023-01-10T08:24:37;7.10;99.90
11540;DHT22;5826;54.756;9.192;2023-01-10T08:27:03;7.10;99.90
11540;DHT22;5826;54.756;9.192;2023-01-10T08:29:28;7.10;99.90
11540;DHT22;5826;54.756;9.192;2023-01-10T08:31:54;7.10;99.90
11540;DHT22;5826;54.756;9.192;2023-01-10T08:34:20;7.10;99.90
11540;DHT22;5826;54.756;9.192;2023-01-10T08:36:52;7.10;99.90
11540;DHT22;5826;54.756;9.192;2023-01-10T08:39:19;7.20;99.90
11540;DHT22;5826;54.756;9.192;2023-01-10T08:41:47;7.20;99.90
11540;DHT22;5826;54.756;9.192;2023-01-10T08:44:12;7.20;99.90
11540;DHT22;5826;54.756;9.192;2023-01-10T08:46:40;7.20;99.90
11540;DHT22;5826;54.756;9.192;2023-01-10T08:49:06;7.20;99.90
11540;DHT22;5826;54.756;9.192;2023-01-10T08:51:31;7.20;99.90
11540;DHT22;5826;54.756;9.192;2023-01-10T08:53:57;7.20;99.90
11540;DHT22;5826;54.756;9.192;2023-01-10T08:56:22;7.20;99.90
11540;DHT22;5826;54.756;9.192;2023-01-10T08:58:48;7.20;99.90
11540;DHT22;5826;54.756;9.192;2023-01-10T09:01:13;7.20;99.90
11540;DHT22;5826;54.756;9.192;2023-01-10T09:03:39;7.20;99.90
11540;DHT22;5826;54.756;9.192;2023-01-10T09:06:05;7.20;99.90
11540;DHT22;5826;54.756;9.192;2023-01-10T09:08:31;7.20;99.90
11540;DHT22;5826;54.756;9.192;2023-01-10T09:11:00;7.30;99.90
11540;DHT22;5826;54.756;9.192;2023-01-10T09:13:27;7.30;99.90
11540;DHT22;5826;54.756;9.192;2023-01-10T09:15:53;7.30;99.90
11540;DHT22;5826;54.756;9.192;2023-01-10T09:18:19;7.30;99.90
11540;DHT22;5826;54.756;9.192;2023-01-10T09:20:45;7.30;99.90
11540;DHT22;5826;54.756;9.192;2023-01-10T09:23:13;7.30;99.90
11540;DHT22;5826;54.756;9.192;2023-01-10T09:25:48;7.30;99.90
11540;DHT22;5826;54.756;9.192;2023-01-10T09:28:14;7.30;99.90
11540;DHT22;5826;54.756;9.192;2023-01-10T09:30:39;7.30;99.90
11540;DHT22;5826;54.756;9.192;2023-01-10T09:33:05;7.40;99.90
11540;DHT22;5826;54.756;9.192;2023-01-10T09:35:34;7.40;99.90
11540;DHT22;5826;54.756;9.192;2023-01-10T09:38:00;7.40;99.90
11540;DHT22;5826;54.756;9.192;2023-01-10T09:40:30;7.30;99.90
11540;DHT22;5826;54.756;9.192;2023-01-10T09:46:03;7.30;99.90
11540;DHT22;5826;54.756;9.192;2023-01-10T09:56:46;7.40;99.90
11540;DHT22;5826;54.756;9.192;2023-01-10T09:59:36;7.40;99.90
11540;DHT22;5826;54.756;9.192;2023-01-10T10:02:24;7.40;99.90
11540;DHT22;5826;54.756;9.192;2023-01-10T10:05:19;7.30;99.90
11540;DHT22;5826;54.756;9.192;2023-01-10T10:07:51;7.30;99.90
11540;DHT22;5826;54.756;9.192;2023-01-10T10:10:40;7.30;99.90
11540;DHT22;5826;54.756;9.192;2023-01-10T10:13:14;7.30;99.90
11540;DHT22;5826;54.756;9.192;2023-01-10T10:18:43;7.30;99.90
11540;DHT22;5826;54.756;9.192;2023-01-10T10:21:36;7.30;99.90
11540;DHT22;5826;54.756;9.192;2023-01-10T10:26:56;7.30;99.90
11540;DHT22;5826;54.756;9.192;2023-01-10T10:30:02;7.30;99.90
11540;DHT22;5826;54.756;9.192;2023-01-10T10:32:59;7.30;99.90
11540;DHT22;5826;54.756;9.192;2023-01-10T10:35:30;7.30;99.90
11540;DHT22;5826;54.756;9.192;2023-01-10T10:38:27;7.40;99.90
11540;DHT22;5826;54.756;9.192;2023-01-10T10:40:55;7.40;99.90
11540;DHT22;5826;54.756;9.192;2023-01-10T10:43:23;7.40;99.90
11540;DHT22;5826;54.756;9.192;2023-01-10T10:45:57;7.40;99.90
11540;DHT22;5826;54.756;9.192;2023-01-10T10:48:29;7.40;99.90
11540;DHT22;5826;54.756;9.192;2023-01-10T10:53:27;7.50;99.90
11540;DHT22;5826;54.756;9.192;2023-01-10T10:55:53;7.50;99.90
11540;DHT22;5826;54.756;9.192;2023-01-10T10:58:19;7.50;99.90
11540;DHT22;5826;54.756;9.192;2023-01-10T11:00:44;7.50;99.90
11540;DHT22;5826;54.756;9.192;2023-01-10T11:03:40;7.50;99.90
11540;DHT22;5826;54.756;9.192;2023-01-10T11:06:07;7.50;99.90
11540;DHT22;5826;54.756;9.192;2023-01-10T11:08:37;7.50;99.90
11540;DHT22;5826;54.756;9.192;2023-01-10T11:11:47;7.60;99.90
11540;DHT22;5826;54.756;9.192;2023-01-10T11:14:07;7.60;99.90
11540;DHT22;5826;54.756;9.192;2023-01-10T11:16:38;7.60;99.90
11540;DHT22;5826;54.756;9.192;2023-01-10T11:21:56;7.60;99.90
11540;DHT22;5826;54.756;9.192;2023-01-10T11:26:55;7.60;99.90
11540;DHT22;5826;54.756;9.192;2023-01-10T11:29:35;7.60;99.90
11540;DHT22;5826;54.756;9.192;2023-01-10T11:32:09;7.60;99.90
11540;DHT22;5826;54.756;9.192;2023-01-10T11:34:39;7.60;99.90
11540;DHT22;5826;54.756;9.192;2023-01-10T11:37:23;7.60;99.90
11540;DHT22;5826;54.756;9.192;2023-01-10T11:40:22;7.60;99.90
11540;DHT22;5826;54.756;9.192;2023-01-10T11:42:51;7.70;99.90
11540;DHT22;5826;54.756;9.192;2023-01-10T11:47:51;7.70;99.90
11540;DHT22;5826;54.756;9.192;2023-01-10T11:50:24;7.70;99.90
11540;DHT22;5826;54.756;9.192;2023-01-10T11:52:50;7.80;99.90
11540;DHT22;5826;54.756;9.192;2023-01-10T11:55:22;7.80;99.90
11540;DHT22;5826;54.756;9.192;2023-01-10T11:57:58;7.90;99.90
11540;DHT22;5826;54.756;9.192;2023-01-10T12:00:31;7.90;99.90
11540;DHT22;5826;54.756;9.192;2023-01-10T12:02:58;7.90;99.90
11540;DHT22;5826;54.756;9.192;2023-01-10T12:05:25;7.80;99.90
11540;DHT22;5826;54.756;9.192;2023-01-10T12:08:03;7.80;99.90
11540;DHT22;5826;54.756;9.192;2023-01-10T12:10:31;7.80;99.90
11540;DHT22;5826;54.756;9.192;2023-01-10T12:13:13;7.80;99.90
11540;DHT22;5826;54.756;9.192;2023-01-10T12:15:39;7.90;99.90
11540;DHT22;5826;54.756;9.192;2023-01-10T12:18:05;7.90;99.90
11540;DHT22;5826;54.756;9.192;2023-01-10T12:20:35;7.90;99.90
11540;DHT22;5826;54.756;9.192;2023-01-10T12:23:09;7.90;99.90
11540;DHT22;5826;54.756;9.192;2023-01-10T12:25:39;7.90;99.90
11540;DHT22;5826;54.756;9.192;2023-01-10T12:28:22;7.90;99.90
11540;DHT22;5826;54.756;9.192;2023-01-10T12:30:49;7.90;99.90
11540;DHT22;5826;54.756;9.192;2023-01-10T12:33:45;7.90;99.90
11540;DHT22;5826;54.756;9.192;2023-01-10T12:39:13;7.80;99.90
11540;DHT22;5826;54.756;9.192;2023-01-10T12:44:35;7.80;99.90
11540;DHT22;5826;54.756;9.192;2023-01-10T12:50:16;7.80;99.90
11540;DHT22;5826;54.756;9.192;2023-01-10T12:53:04;7.80;99.90
11540;DHT22;5826;54.756;9.192;2023-01-10T12:55:34;7.80;99.90
11540;DHT22;5826;54.756;9.192;2023-01-10T12:58:02;7.80;99.90
11540;DHT22;5826;54.756;9.192;2023-01-10T13:00:35;7.80;99.90
11540;DHT22;5826;54.756;9.192;2023-01-10T13:03:05;7.70;99.90
11540;DHT22;5826;54.756;9.192;2023-01-10T13:05:33;7.70;99.90
11540;DHT22;5826;54.756;9.192;2023-01-10T13:08:03;7.70;99.90
11540;DHT22;5826;54.756;9.192;2023-01-10T13:10:30;7.70;99.90
11540;DHT22;5826;54.756;9.192;2023-01-10T13:16:39;7.80;99.90
11540;DHT22;5826;54.756;9.192;2023-01-10T13:21:37;7.80;99.90
11540;DHT22;5826;54.756;9.192;2023-01-10T13:26:54;7.70;99.90
11540;DHT22;5826;54.756;9.192;2023-01-10T13:29:26;7.80;99.90
11540;DHT22;5826;54.756;9.192;2023-01-10T13:31:55;7.80;99.90
11540;DHT22;5826;54.756;9.192;2023-01-10T13:34:26;7.80;99.90
11540;DHT22;5826;54.756;9.192;2023-01-10T13:37:00;7.80;99.90
11540;DHT22;5826;54.756;9.192;2023-01-10T13:39:35;7.80;99.90
11540;DHT22;5826;54.756;9.192;2023-01-10T14:01:35;7.90;99.90
11540;DHT22;5826;54.756;9.192;2023-01-10T14:04:24;7.80;99.90
11540;DHT22;5826;54.756;9.192;2023-01-10T14:06:58;7.80;99.90
11540;DHT22;5826;54.756;9.192;2023-01-10T14:09:33;7.80;99.90
11540;DHT22;5826;54.756;9.192;2023-01-10T14:12:20;7.80;99.90
11540;DHT22;5826;54.756;9.192;2023-01-10T14:14:57;7.80;99.90
11540;DHT22;5826;54.756;9.192;2023-01-10T14:17:29;7.80;99.90
11540;DHT22;5826;54.756;9.192;2023-01-10T14:20:17;7.80;99.90
11540;DHT22;5826;54.756;9.192;2023-01-10T14:22:57;7.70;99.90
11540;DHT22;5826;54.756;9.192;2023-01-10T14:25:25;7.80;99.90
11540;DHT22;5826;54.756;9.192;2023-01-10T14:27:52;7.70;99.90
11540;DHT22;5826;54.756;9.192;2023-01-10T14:30:28;7.70;99.90
11540;DHT22;5826;54.756;9.192;2023-01-10T14:32:56;7.80;99.90
11540;DHT22;5826;54.756;9.192;2023-01-10T14:35:29;7.70;99.90
11540;DHT22;5826;54.756;9.192;2023-01-10T14:37:57;7.70;99.90
11540;DHT22;5826;54.756;9.192;2023-01-10T14:40:35;7.70;99.90
11540;DHT22;5826;54.756;9.192;2023-01-10T14:43:10;7.70;99.90
11540;DHT22;5826;54.756;9.192;2023-01-10T14:45:45;7.70;99.90
11540;DHT22;5826;54.756;9.192;2023-01-10T14:48:30;7.60;99.90
11540;DHT22;5826;54.756;9.192;2023-01-10T14:51:14;7.60;99.90
11540;DHT22;5826;54.756;9.192;2023-01-10T14:53:41;7.50;99.90
11540;DHT22;5826;54.756;9.192;2023-01-10T14:56:22;7.50;99.90
11540;DHT22;5826;54.756;9.192;2023-01-10T14:58:47;7.50;99.90
11540;DHT22;5826;54.756;9.192;2023-01-10T15:01:24;7.50;99.90
11540;DHT22;5826;54.756;9.192;2023-01-10T15:03:51;7.40;99.90
11540;DHT22;5826;54.756;9.192;2023-01-10T15:06:17;7.40;99.90
11540;DHT22;5826;54.756;9.192;2023-01-10T15:08:42;7.30;99.90
11540;DHT22;5826;54.756;9.192;2023-01-10T15:11:10;7.30;99.90
11540;DHT22;5826;54.756;9.192;2023-01-10T15:13:49;7.30;99.90
11540;DHT22;5826;54.756;9.192;2023-01-10T15:16:18;7.20;99.90
11540;DHT22;5826;54.756;9.192;2023-01-10T15:18:46;7.20;99.90
11540;DHT22;5826;54.756;9.192;2023-01-10T15:21:13;7.20;99.90
11540;DHT22;5826;54.756;9.192;2023-01-10T15:23:41;7.20;99.90
11540;DHT22;5826;54.756;9.192;2023-01-10T15:26:30;7.10;99.90
11540;DHT22;5826;54.756;9.192;2023-01-10T15:29:10;7.10;99.90
11540;DHT22;5826;54.756;9.192;2023-01-10T15:31:37;7.10;99.90
11540;DHT22;5826;54.756;9.192;2023-01-10T15:34:10;7.20;99.90
11540;DHT22;5826;54.756;9.192;2023-01-10T15:36:46;7.10;99.90
11540;DHT22;5826;54.756;9.192;2023-01-10T15:39:20;7.10;99.90
11540;DHT22;5826;54.756;9.192;2023-01-10T15:41:47;7.10;99.90
11540;DHT22;5826;54.756;9.192;2023-01-10T15:46:55;7.00;99.90
11540;DHT22;5826;54.756;9.192;2023-01-10T15:49:23;7.00;99.90
11540;DHT22;5826;54.756;9.192;2023-01-10T15:51:49;7.00;99.90
11540;DHT22;5826;54.756;9.192;2023-01-10T15:56:57;7.00;99.90
11540;DHT22;5826;54.756;9.192;2023-01-10T15:59:38;7.00;99.90
11540;DHT22;5826;54.756;9.192;2023-01-10T16:02:16;7.00;99.90
11540;DHT22;5826;54.756;9.192;2023-01-10T16:04:44;7.00;99.90
11540;DHT22;5826;54.756;9.192;2023-01-10T16:07:23;7.00;99.90
11540;DHT22;5826;54.756;9.192;2023-01-10T16:10:07;7.00;99.90
11540;DHT22;5826;54.756;9.192;2023-01-10T16:12:36;7.00;99.90
11540;DHT22;5826;54.756;9.192;2023-01-10T16:15:31;7.10;99.90
11540;DHT22;5826;54.756;9.192;2023-01-10T16:17:57;7.10;99.90
11540;DHT22;5826;54.756;9.192;2023-01-10T16:20:32;7.00;99.90
11540;DHT22;5826;54.756;9.192;2023-01-10T16:22:59;7.10;99.90
11540;DHT22;5826;54.756;9.192;2023-01-10T16:25:36;7.10;99.90
11540;DHT22;5826;54.756;9.192;2023-01-10T16:28:14;7.10;99.90
11540;DHT22;5826;54.756;9.192;2023-01-10T16:30:40;7.10;99.90
11540;DHT22;5826;54.756;9.192;2023-01-10T16:33:12;7.10;99.90
11540;DHT22;5826;54.756;9.192;2023-01-10T16:35:44;7.10;99.90
11540;DHT22;5826;54.756;9.192;2023-01-10T16:38:10;7.00;99.90
11540;DHT22;5826;54.756;9.192;2023-01-10T16:40:41;7.00;99.90
11540;DHT22;5826;54.756;9.192;2023-01-10T16:43:07;7.00;99.90
11540;DHT22;5826;54.756;9.192;2023-01-10T16:48:11;7.00;99.90
11540;DHT22;5826;54.756;9.192;2023-01-10T16:50:37;7.00;99.90
11540;DHT22;5826;54.756;9.192;2023-01-10T16:53:03;7.00;99.90
11540;DHT22;5826;54.756;9.192;2023-01-10T16:55:39;7.00;99.90
11540;DHT22;5826;54.756;9.192;2023-01-10T16:58:06;7.00;99.90
11540;DHT22;5826;54.756;9.192;2023-01-10T17:00:32;7.00;99.90
11540;DHT22;5826;54.756;9.192;2023-01-10T17:02:58;7.00;99.90
11540;DHT22;5826;54.756;9.192;2023-01-10T17:05:26;7.00;99.90
11540;DHT22;5826;54.756;9.192;2023-01-10T17:07:51;7.00;99.90
11540;DHT22;5826;54.756;9.192;2023-01-10T17:10:17;7.00;99.90
11540;DHT22;5826;54.756;9.192;2023-01-10T17:12:42;7.00;99.90
11540;DHT22;5826;54.756;9.192;2023-01-10T17:15:12;7.00;99.90
11540;DHT22;5826;54.756;9.192;2023-01-10T17:17:39;7.00;99.90
11540;DHT22;5826;54.756;9.192;2023-01-10T17:20:13;7.00;99.90
11540;DHT22;5826;54.756;9.192;2023-01-10T17:22:38;7.00;99.90
11540;DHT22;5826;54.756;9.192;2023-01-10T17:25:05;7.00;99.90
11540;DHT22;5826;54.756;9.192;2023-01-10T17:27:30;7.00;99.90
11540;DHT22;5826;54.756;9.192;2023-01-10T17:29:56;7.00;99.90
11540;DHT22;5826;54.756;9.192;2023-01-10T17:32:21;7.00;99.90
11540;DHT22;5826;54.756;9.192;2023-01-10T17:34:47;7.00;99.90
11540;DHT22;5826;54.756;9.192;2023-01-10T17:37:12;7.00;99.90
11540;DHT22;5826;54.756;9.192;2023-01-10T17:39:38;7.00;99.90
11540;DHT22;5826;54.756;9.192;2023-01-10T17:42:04;7.00;99.90
11540;DHT22;5826;54.756;9.192;2023-01-10T17:44:29;6.90;99.90
11540;DHT22;5826;54.756;9.192;2023-01-10T17:46:55;6.90;99.90
11540;DHT22;5826;54.756;9.192;2023-01-10T17:49:22;6.90;99.90
11540;DHT22;5826;54.756;9.192;2023-01-10T17:51:47;6.90;99.90
11540;DHT22;5826;54.756;9.192;2023-01-10T17:54:13;6.90;99.90
11540;DHT22;5826;54.756;9.192;2023-01-10T17:56:39;6.90;99.90
11540;DHT22;5826;54.756;9.192;2023-01-10T17:59:05;6.90;99.90
11540;DHT22;5826;54.756;9.192;2023-01-10T18:01:31;6.90;99.90